EZY2000 EGHQ-EGHQ
Flight info
| Callsign | EZY2000 |
|---|---|
| Flight time | N/A |
| Altitude | 9000 |
| Route | BASE TRAINNING |
| Aircraft | A20N/M-SDE2E3FGHIRWXY/LB1 |
Departure
| Time | 2026-05-09 18:40 |
|---|---|
| Airport | Cornwall Airport Newquay (EGHQ) |
Arrival
| Time | N/A |
|---|---|
| Airport | Cornwall Airport Newquay (EGHQ) |
| Time | Latitude | Longitude | Altitude | Speed | Heading |
|---|---|---|---|---|---|
| 2026-05-09 18:25 | 50.44650 | -5.00401 | 337 ft | 0 kts | 76° |
| 2026-05-09 18:31 | 50.44648 | -5.00414 | 334 ft | 4 kts | 74° |
| 2026-05-09 18:31 | 50.44645 | -5.00434 | 334 ft | 2 kts | 77° |
| 2026-05-09 18:31 | 50.44642 | -5.00487 | 331 ft | 4 kts | 107° |
| 2026-05-09 18:32 | 50.44648 | -5.00507 | 330 ft | 1 kts | 121° |
| 2026-05-09 18:32 | 50.44648 | -5.00508 | 330 ft | 0 kts | 121° |
| 2026-05-09 18:34 | 50.44647 | -5.00506 | 330 ft | 2 kts | 121° |
| 2026-05-09 18:35 | 50.44618 | -5.00430 | 337 ft | 13 kts | 120° |
| 2026-05-09 18:35 | 50.44574 | -5.00312 | 342 ft | 12 kts | 120° |
| 2026-05-09 18:35 | 50.44532 | -5.00201 | 355 ft | 11 kts | 120° |
| 2026-05-09 18:35 | 50.44484 | -5.00072 | 358 ft | 22 kts | 120° |
| 2026-05-09 18:36 | 50.44402 | -4.99865 | 358 ft | 23 kts | 119° |
| 2026-05-09 18:36 | 50.44327 | -4.99654 | 370 ft | 21 kts | 122° |
| 2026-05-09 18:36 | 50.44253 | -4.99461 | 374 ft | 21 kts | 118° |
| 2026-05-09 18:36 | 50.44180 | -4.99265 | 377 ft | 22 kts | 121° |
| 2026-05-09 18:37 | 50.44101 | -4.99059 | 375 ft | 22 kts | 120° |
| 2026-05-09 18:37 | 50.44024 | -4.98853 | 380 ft | 21 kts | 120° |
| 2026-05-09 18:37 | 50.43954 | -4.98662 | 388 ft | 19 kts | 120° |
| 2026-05-09 18:37 | 50.43887 | -4.98484 | 391 ft | 19 kts | 121° |
| 2026-05-09 18:38 | 50.43815 | -4.98305 | 395 ft | 20 kts | 118° |
| 2026-05-09 18:38 | 50.43747 | -4.98120 | 391 ft | 19 kts | 121° |
| 2026-05-09 18:38 | 50.43682 | -4.97952 | 390 ft | 17 kts | 128° |
| 2026-05-09 18:40 | 50.45334 | -5.02850 | 1479 ft | 234 kts | 303° |
| 2026-05-09 18:40 | 50.46182 | -5.05124 | 2080 ft | 240 kts | 304° |
| 2026-05-09 18:40 | 50.47014 | -5.07365 | 2562 ft | 237 kts | 303° |
| 2026-05-09 18:41 | 50.47850 | -5.09615 | 3039 ft | 240 kts | 302° |
| 2026-05-09 18:41 | 50.48695 | -5.11890 | 3412 ft | 243 kts | 302° |
| 2026-05-09 18:41 | 50.49551 | -5.14183 | 3493 ft | 244 kts | 303° |
| 2026-05-09 18:41 | 50.50645 | -5.16157 | 3557 ft | 238 kts | 330° |
| 2026-05-09 18:42 | 50.52167 | -5.16970 | 3683 ft | 229 kts | 2° |
| 2026-05-09 18:42 | 50.53670 | -5.16414 | 3821 ft | 220 kts | 33° |
| 2026-05-09 18:42 | 50.54687 | -5.14723 | 3937 ft | 213 kts | 65° |
| 2026-05-09 18:42 | 50.55011 | -5.12464 | 3995 ft | 215 kts | 85° |
| 2026-05-09 18:43 | 50.55037 | -5.10114 | 3990 ft | 214 kts | 89° |
| 2026-05-09 18:43 | 50.55015 | -5.07776 | 3992 ft | 213 kts | 89° |
| 2026-05-09 18:43 | 50.54991 | -5.05479 | 3996 ft | 213 kts | 89° |
| 2026-05-09 18:43 | 50.54968 | -5.03148 | 3991 ft | 214 kts | 89° |
| 2026-05-09 18:44 | 50.54947 | -5.00795 | 3994 ft | 215 kts | 89° |
| 2026-05-09 18:44 | 50.54927 | -4.98451 | 3996 ft | 213 kts | 89° |
| 2026-05-09 18:44 | 50.54902 | -4.96137 | 3991 ft | 211 kts | 89° |
| 2026-05-09 18:44 | 50.54876 | -4.93814 | 3991 ft | 214 kts | 89° |
| 2026-05-09 18:45 | 50.54856 | -4.91461 | 3996 ft | 216 kts | 89° |
| 2026-05-09 18:45 | 50.54837 | -4.89107 | 3998 ft | 214 kts | 89° |
| 2026-05-09 18:45 | 50.54812 | -4.86782 | 3992 ft | 211 kts | 90° |
| 2026-05-09 18:45 | 50.54783 | -4.84470 | 3992 ft | 212 kts | 89° |
| 2026-05-09 18:46 | 50.54761 | -4.82136 | 3998 ft | 215 kts | 89° |
| 2026-05-09 18:46 | 50.54740 | -4.79784 | 3993 ft | 214 kts | 89° |
| 2026-05-09 18:46 | 50.54718 | -4.77446 | 3992 ft | 213 kts | 89° |
| 2026-05-09 18:46 | 50.54690 | -4.75116 | 3997 ft | 214 kts | 89° |
| 2026-05-09 18:47 | 50.54665 | -4.72767 | 3996 ft | 215 kts | 89° |
| 2026-05-09 18:47 | 50.54601 | -4.70414 | 3990 ft | 216 kts | 98° |
| 2026-05-09 18:47 | 50.54039 | -4.68224 | 4000 ft | 218 kts | 116° |
| 2026-05-09 18:47 | 50.53233 | -4.66206 | 4001 ft | 218 kts | 119° |
| 2026-05-09 18:48 | 50.52409 | -4.64238 | 3996 ft | 219 kts | 120° |
| 2026-05-09 18:48 | 50.51578 | -4.62227 | 3998 ft | 220 kts | 119° |
| 2026-05-09 18:48 | 50.50742 | -4.60202 | 3995 ft | 221 kts | 119° |
| 2026-05-09 18:48 | 50.49906 | -4.58176 | 3993 ft | 221 kts | 119° |
| 2026-05-09 18:49 | 50.49070 | -4.56153 | 3990 ft | 221 kts | 119° |
| 2026-05-09 18:49 | 50.48233 | -4.54136 | 3991 ft | 221 kts | 122° |
| 2026-05-09 18:49 | 50.47074 | -4.52536 | 3856 ft | 227 kts | 150° |
| 2026-05-09 18:49 | 50.45508 | -4.52089 | 3513 ft | 236 kts | 181° |
| 2026-05-09 18:50 | 50.43933 | -4.52918 | 3194 ft | 241 kts | 205° |
| 2026-05-09 18:50 | 50.42507 | -4.54246 | 3017 ft | 235 kts | 209° |
| 2026-05-09 18:50 | 50.41140 | -4.55624 | 2989 ft | 233 kts | 209° |
| 2026-05-09 18:50 | 50.39770 | -4.57000 | 2981 ft | 235 kts | 209° |
| 2026-05-09 18:51 | 50.38392 | -4.58373 | 2995 ft | 235 kts | 209° |
| 2026-05-09 18:51 | 50.37013 | -4.59737 | 2992 ft | 233 kts | 210° |
| 2026-05-09 18:51 | 50.35658 | -4.61145 | 2988 ft | 235 kts | 219° |
| 2026-05-09 18:51 | 50.34759 | -4.63238 | 3007 ft | 230 kts | 252° |
| 2026-05-09 18:52 | 50.34504 | -4.65662 | 3013 ft | 226 kts | 267° |
| 2026-05-09 18:52 | 50.34421 | -4.68136 | 2903 ft | 228 kts | 269° |
| 2026-05-09 18:52 | 50.34363 | -4.70585 | 2570 ft | 227 kts | 269° |
| 2026-05-09 18:52 | 50.34428 | -4.73074 | 2496 ft | 226 kts | 281° |
| 2026-05-09 18:53 | 50.34859 | -4.75378 | 2495 ft | 222 kts | 298° |
| 2026-05-09 18:53 | 50.35626 | -4.77453 | 2483 ft | 220 kts | 306° |
| 2026-05-09 18:53 | 50.36433 | -4.79489 | 2486 ft | 220 kts | 305° |
| 2026-05-09 18:53 | 50.37215 | -4.81543 | 2503 ft | 214 kts | 304° |
| 2026-05-09 18:54 | 50.37943 | -4.83471 | 2500 ft | 200 kts | 304° |
| 2026-05-09 18:54 | 50.38651 | -4.85326 | 2373 ft | 196 kts | 305° |
| 2026-05-09 18:54 | 50.39346 | -4.87146 | 2089 ft | 192 kts | 307° |
| 2026-05-09 18:54 | 50.40009 | -4.88885 | 1815 ft | 180 kts | 307° |
| 2026-05-09 18:55 | 50.40635 | -4.90526 | 1552 ft | 172 kts | 308° |
| 2026-05-09 18:55 | 50.41240 | -4.92110 | 1327 ft | 165 kts | 308° |
| 2026-05-09 18:55 | 50.41802 | -4.93587 | 1109 ft | 151 kts | 310° |
| 2026-05-09 18:55 | 50.42409 | -4.95097 | 925 ft | 171 kts | 304° |
| 2026-05-09 18:56 | 50.42969 | -4.96593 | 661 ft | 149 kts | 304° |
| 2026-05-09 18:56 | 50.43476 | -4.97954 | 463 ft | 141 kts | 306° |
| 2026-05-09 18:56 | 50.43967 | -4.99228 | 363 ft | 126 kts | 300° |
| 2026-05-09 18:56 | 50.44328 | -5.00189 | 348 ft | 92 kts | 299° |
| 2026-05-09 18:57 | 50.44735 | -5.01283 | 393 ft | 152 kts | 307° |
| 2026-05-09 18:57 | 50.45391 | -5.02901 | 1012 ft | 194 kts | 310° |
| 2026-05-09 18:57 | 50.46063 | -5.04805 | 1990 ft | 207 kts | 301° |
| 2026-05-09 18:57 | 50.46705 | -5.06986 | 2617 ft | 232 kts | 300° |
| 2026-05-09 18:58 | 50.47402 | -5.09358 | 2933 ft | 244 kts | 299° |
| 2026-05-09 18:58 | 50.48110 | -5.11748 | 2987 ft | 245 kts | 299° |
| 2026-05-09 18:58 | 50.48839 | -5.14204 | 3003 ft | 246 kts | 299° |
| 2026-05-09 18:58 | 50.49570 | -5.16634 | 2988 ft | 247 kts | 299° |
| 2026-05-09 18:59 | 50.50307 | -5.19049 | 2996 ft | 244 kts | 300° |
| 2026-05-09 18:59 | 50.51302 | -5.21111 | 2996 ft | 237 kts | 328° |
| 2026-05-09 18:59 | 50.52773 | -5.22061 | 3002 ft | 225 kts | 360° |
| 2026-05-09 18:59 | 50.54256 | -5.21622 | 3002 ft | 215 kts | 32° |
| 2026-05-09 19:00 | 50.55268 | -5.20011 | 3003 ft | 207 kts | 64° |
| 2026-05-09 19:00 | 50.55553 | -5.15526 | 2989 ft | 210 kts | 89° |
| 2026-05-09 19:00 | 50.55500 | -5.13213 | 2999 ft | 213 kts | 89° |
| 2026-05-09 19:01 | 50.55444 | -5.10891 | 2995 ft | 212 kts | 90° |
| 2026-05-09 19:01 | 50.55385 | -5.08576 | 2996 ft | 211 kts | 90° |
| 2026-05-09 19:01 | 50.55321 | -5.06278 | 3001 ft | 211 kts | 90° |
| 2026-05-09 19:01 | 50.55254 | -5.03962 | 2998 ft | 213 kts | 89° |
| 2026-05-09 19:02 | 50.55192 | -5.01633 | 2979 ft | 213 kts | 90° |
| 2026-05-09 19:02 | 50.55118 | -4.99314 | 2999 ft | 212 kts | 89° |
| 2026-05-09 19:02 | 50.55030 | -4.97017 | 2993 ft | 210 kts | 90° |
| 2026-05-09 19:02 | 50.54949 | -4.94709 | 2996 ft | 213 kts | 90° |
| 2026-05-09 19:03 | 50.54885 | -4.92374 | 2989 ft | 213 kts | 90° |
| 2026-05-09 19:03 | 50.54819 | -4.90049 | 3000 ft | 213 kts | 88° |
| 2026-05-09 19:03 | 50.54740 | -4.87733 | 2997 ft | 212 kts | 89° |
| 2026-05-09 19:03 | 50.54668 | -4.85416 | 3003 ft | 213 kts | 90° |
| 2026-05-09 19:04 | 50.54410 | -4.83140 | 2992 ft | 218 kts | 109° |
| 2026-05-09 19:04 | 50.53651 | -4.81019 | 2991 ft | 221 kts | 118° |
| 2026-05-09 19:04 | 50.52796 | -4.79042 | 2990 ft | 221 kts | 120° |
| 2026-05-09 19:04 | 50.51922 | -4.77045 | 3000 ft | 222 kts | 119° |
| 2026-05-09 19:05 | 50.51040 | -4.75063 | 2998 ft | 221 kts | 120° |
| 2026-05-09 19:05 | 50.50160 | -4.73078 | 2992 ft | 221 kts | 119° |
| 2026-05-09 19:05 | 50.49283 | -4.71089 | 2993 ft | 222 kts | 119° |
| 2026-05-09 19:05 | 50.48401 | -4.69101 | 2992 ft | 222 kts | 120° |
| 2026-05-09 19:06 | 50.47522 | -4.67109 | 2991 ft | 222 kts | 120° |
| 2026-05-09 19:06 | 50.46646 | -4.65108 | 3003 ft | 223 kts | 120° |
| 2026-05-09 19:06 | 50.45774 | -4.63102 | 2993 ft | 222 kts | 120° |
| 2026-05-09 19:06 | 50.44880 | -4.61121 | 2991 ft | 224 kts | 128° |
| 2026-05-09 19:07 | 50.43544 | -4.59815 | 2989 ft | 234 kts | 160° |
| 2026-05-09 19:07 | 50.41898 | -4.59807 | 2988 ft | 246 kts | 192° |
| 2026-05-09 19:07 | 50.40324 | -4.60915 | 2984 ft | 250 kts | 207° |
| 2026-05-09 19:07 | 50.38833 | -4.62316 | 2990 ft | 249 kts | 209° |
| 2026-05-09 19:08 | 50.37357 | -4.63741 | 2997 ft | 250 kts | 209° |
| 2026-05-09 19:08 | 50.35910 | -4.65197 | 2980 ft | 251 kts | 212° |
| 2026-05-09 19:08 | 50.34745 | -4.67229 | 2987 ft | 255 kts | 243° |
| 2026-05-09 19:08 | 50.34291 | -4.69844 | 3001 ft | 245 kts | 265° |
| 2026-05-09 19:09 | 50.34181 | -4.72453 | 2670 ft | 237 kts | 276° |
| 2026-05-09 19:09 | 50.34607 | -4.74878 | 2538 ft | 230 kts | 302° |
| 2026-05-09 19:09 | 50.35440 | -4.77001 | 2495 ft | 230 kts | 309° |
| 2026-05-09 19:09 | 50.36292 | -4.79102 | 2489 ft | 219 kts | 307° |
| 2026-05-09 19:10 | 50.37033 | -4.81068 | 2503 ft | 204 kts | 306° |
| 2026-05-09 19:10 | 50.37746 | -4.82955 | 2494 ft | 200 kts | 307° |
| 2026-05-09 19:10 | 50.38466 | -4.84830 | 2451 ft | 200 kts | 307° |
| 2026-05-09 19:10 | 50.39177 | -4.86690 | 2170 ft | 198 kts | 308° |
| 2026-05-09 19:11 | 50.39879 | -4.88535 | 1859 ft | 196 kts | 308° |
| 2026-05-09 19:11 | 50.40559 | -4.90323 | 1582 ft | 182 kts | 308° |
| 2026-05-09 19:11 | 50.41174 | -4.91941 | 1343 ft | 164 kts | 310° |
| 2026-05-09 19:11 | 50.41737 | -4.93414 | 1151 ft | 150 kts | 309° |
| 2026-05-09 19:12 | 50.42284 | -4.94826 | 1031 ft | 160 kts | 312° |
| 2026-05-09 19:12 | 50.42909 | -4.96369 | 747 ft | 167 kts | 302° |
| 2026-05-09 19:12 | 50.43452 | -4.97876 | 472 ft | 153 kts | 303° |
| 2026-05-09 19:12 | 50.43969 | -4.99248 | 362 ft | 139 kts | 305° |
| 2026-05-09 19:13 | 50.44320 | -5.00175 | 349 ft | 51 kts | 300° |